sensor_id;sensor_type;location;lat;lon;timestamp;pressure;altitude;pressure_sealevel;temperature;humidity
53900;BME280;40509;32.858;-116.858;2023-04-05T00:00:05;98314.13;;;18.43;45.63
53900;BME280;40509;32.858;-116.858;2023-04-05T00:02:37;98306.28;;;18.43;45.34
53900;BME280;40509;32.858;-116.858;2023-04-05T00:05:07;98306.53;;;18.40;45.32
53900;BME280;40509;32.858;-116.858;2023-04-05T00:07:35;98313.28;;;18.43;45.58
53900;BME280;40509;32.858;-116.858;2023-04-05T00:10:03;98313.16;;;18.44;45.22
53900;BME280;40509;32.858;-116.858;2023-04-05T00:12:30;98316.59;;;18.45;45.47
53900;BME280;40509;32.858;-116.858;2023-04-05T00:14:57;98321.00;;;18.44;45.58
53900;BME280;40509;32.858;-116.858;2023-04-05T00:17:24;98320.88;;;18.46;45.65
53900;BME280;40509;32.858;-116.858;2023-04-05T00:19:51;98325.28;;;18.45;45.51
53900;BME280;40509;32.858;-116.858;2023-04-05T00:22:23;98327.91;;;18.45;45.50
53900;BME280;40509;32.858;-116.858;2023-04-05T00:24:51;98326.84;;;18.48;45.61
53900;BME280;40509;32.858;-116.858;2023-04-05T00:27:18;98319.00;;;18.48;45.37
53900;BME280;40509;32.858;-116.858;2023-04-05T00:29:46;98314.25;;;18.42;45.35
53900;BME280;40509;32.858;-116.858;2023-04-05T00:32:13;98323.38;;;18.47;45.53
53900;BME280;40509;32.858;-116.858;2023-04-05T00:34:41;98332.28;;;18.45;45.69
53900;BME280;40509;32.858;-116.858;2023-04-05T00:37:08;98323.38;;;18.47;45.57
53900;BME280;40509;32.858;-116.858;2023-04-05T00:39:35;98326.13;;;18.46;45.58
53900;BME280;40509;32.858;-116.858;2023-04-05T00:42:03;98326.13;;;18.46;45.69
53900;BME280;40509;32.858;-116.858;2023-04-05T00:44:32;98325.88;;;18.49;45.46
53900;BME280;40509;32.858;-116.858;2023-04-05T00:47:04;98333.00;;;18.47;45.45
53900;BME280;40509;32.858;-116.858;2023-04-05T00:49:34;98334.19;;;18.43;45.65
53900;BME280;40509;32.858;-116.858;2023-04-05T00:52:02;98336.69;;;18.44;45.62
53900;BME280;40509;32.858;-116.858;2023-04-05T00:54:30;98335.88;;;18.44;45.76
53900;BME280;40509;32.858;-116.858;2023-04-05T00:56:58;98333.94;;;18.46;45.62
53900;BME280;40509;32.858;-116.858;2023-04-05T00:59:26;98334.31;;;18.41;45.89
53900;BME280;40509;32.858;-116.858;2023-04-05T01:02:07;98334.44;;;18.40;46.00
53900;BME280;40509;32.858;-116.858;2023-04-05T01:04:39;98342.88;;;18.43;45.71
53900;BME280;40509;32.858;-116.858;2023-04-05T01:09:58;98345.59;;;18.42;45.65
53900;BME280;40509;32.858;-116.858;2023-04-05T01:12:31;98349.28;;;18.39;45.97
53900;BME280;40509;32.858;-116.858;2023-04-05T01:14:59;98337.88;;;18.40;45.90
53900;BME280;40509;32.858;-116.858;2023-04-05T01:17:29;98348.34;;;18.40;45.94
53900;BME280;40509;32.858;-116.858;2023-04-05T01:20:07;98353.94;;;18.35;45.85
53900;BME280;40509;32.858;-116.858;2023-04-05T01:25:21;98344.06;;;18.39;45.96
53900;BME280;40509;32.858;-116.858;2023-04-05T01:30:41;98349.16;;;18.41;45.57
53900;BME280;40509;32.858;-116.858;2023-04-05T01:35:53;98350.25;;;18.38;45.77
53900;BME280;40509;32.858;-116.858;2023-04-05T01:38:23;98354.50;;;18.39;45.80
53900;BME280;40509;32.858;-116.858;2023-04-05T01:40:52;98352.03;;;18.49;45.35
53900;BME280;40509;32.858;-116.858;2023-04-05T01:43:20;98351.69;;;18.42;45.92
53900;BME280;40509;32.858;-116.858;2023-04-05T01:45:47;98360.47;;;18.41;45.86
53900;BME280;40509;32.858;-116.858;2023-04-05T01:48:15;98361.53;;;18.39;45.77
53900;BME280;40509;32.858;-116.858;2023-04-05T01:50:42;98364.28;;;18.37;45.78
53900;BME280;40509;32.858;-116.858;2023-04-05T01:53:09;98370.31;;;18.37;46.06
53900;BME280;40509;32.858;-116.858;2023-04-05T01:55:37;98363.53;;;18.35;45.92
53900;BME280;40509;32.858;-116.858;2023-04-05T01:58:04;98372.38;;;18.34;46.12
53900;BME280;40509;32.858;-116.858;2023-04-05T02:00:32;98365.47;;;18.33;46.09
53900;BME280;40509;32.858;-116.858;2023-04-05T02:02:59;98376.03;;;18.31;46.09
53900;BME280;40509;32.858;-116.858;2023-04-05T02:05:27;98370.81;;;18.31;46.20
53900;BME280;40509;32.858;-116.858;2023-04-05T02:07:54;98375.19;;;18.31;46.39
53900;BME280;40509;32.858;-116.858;2023-04-05T02:10:21;98375.78;;;18.34;46.20
53900;BME280;40509;32.858;-116.858;2023-04-05T02:12:49;98375.06;;;18.32;46.00
53900;BME280;40509;32.858;-116.858;2023-04-05T02:15:16;98378.06;;;18.28;46.18
53900;BME280;40509;32.858;-116.858;2023-04-05T02:17:43;98384.94;;;18.29;46.11
53900;BME280;40509;32.858;-116.858;2023-04-05T02:20:13;98389.09;;;18.31;46.21
53900;BME280;40509;32.858;-116.858;2023-04-05T02:22:41;98388.88;;;18.34;46.47
53900;BME280;40509;32.858;-116.858;2023-04-05T02:25:11;98384.81;;;18.30;46.36
53900;BME280;40509;32.858;-116.858;2023-04-05T02:27:39;98395.41;;;18.29;46.31
53900;BME280;40509;32.858;-116.858;2023-04-05T02:30:07;98391.13;;;18.28;46.40
53900;BME280;40509;32.858;-116.858;2023-04-05T02:32:35;98397.03;;;18.30;46.40
53900;BME280;40509;32.858;-116.858;2023-04-05T02:35:02;98392.41;;;18.45;45.80
53900;BME280;40509;32.858;-116.858;2023-04-05T02:37:29;98407.28;;;18.33;46.40
53900;BME280;40509;32.858;-116.858;2023-04-05T02:39:57;98408.22;;;18.32;46.50
53900;BME280;40509;32.858;-116.858;2023-04-05T02:42:24;98415.59;;;18.27;46.64
53900;BME280;40509;32.858;-116.858;2023-04-05T02:44:52;98423.19;;;18.30;46.43
53900;BME280;40509;32.858;-116.858;2023-04-05T02:47:20;98431.88;;;18.30;46.60
53900;BME280;40509;32.858;-116.858;2023-04-05T02:49:54;98427.94;;;18.36;46.27
53900;BME280;40509;32.858;-116.858;2023-04-05T02:52:23;98437.31;;;18.16;46.84
53900;BME280;40509;32.858;-116.858;2023-04-05T02:54:50;98443.25;;;18.29;46.47
53900;BME280;40509;32.858;-116.858;2023-04-05T02:57:23;98445.16;;;18.16;46.69
53900;BME280;40509;32.858;-116.858;2023-04-05T02:59:56;98453.34;;;18.11;46.83
53900;BME280;40509;32.858;-116.858;2023-04-05T03:02:26;98447.06;;;18.14;46.72
53900;BME280;40509;32.858;-116.858;2023-04-05T03:04:54;98448.81;;;18.13;46.96
53900;BME280;40509;32.858;-116.858;2023-04-05T03:07:22;98455.84;;;18.13;47.01
53900;BME280;40509;32.858;-116.858;2023-04-05T03:09:52;98451.09;;;18.18;46.93
53900;BME280;40509;32.858;-116.858;2023-04-05T03:12:21;98448.81;;;18.13;46.82
53900;BME280;40509;32.858;-116.858;2023-04-05T03:14:49;98450.72;;;18.11;47.06
53900;BME280;40509;32.858;-116.858;2023-04-05T03:17:21;98452.63;;;18.09;46.94
53900;BME280;40509;32.858;-116.858;2023-04-05T03:19:57;98455.22;;;18.09;47.01
53900;BME280;40509;32.858;-116.858;2023-04-05T03:22:26;98450.84;;;18.10;47.11
53900;BME280;40509;32.858;-116.858;2023-04-05T03:24:55;98454.28;;;18.10;47.08
53900;BME280;40509;32.858;-116.858;2023-04-05T03:27:24;98460.44;;;18.09;47.29
53900;BME280;40509;32.858;-116.858;2023-04-05T03:30:13;98453.78;;;18.05;47.17
53900;BME280;40509;32.858;-116.858;2023-04-05T03:32:49;98465.09;;;18.06;47.10
53900;BME280;40509;32.858;-116.858;2023-04-05T03:35:32;98462.56;;;18.04;47.41
53900;BME280;40509;32.858;-116.858;2023-04-05T03:37:59;98468.28;;;18.09;47.17
53900;BME280;40509;32.858;-116.858;2023-04-05T03:40:27;98469.25;;;18.08;47.26
53900;BME280;40509;32.858;-116.858;2023-04-05T03:42:54;98477.09;;;18.08;47.15
53900;BME280;40509;32.858;-116.858;2023-04-05T03:45:22;98474.25;;;18.23;46.83
53900;BME280;40509;32.858;-116.858;2023-04-05T03:47:49;98466.53;;;18.10;47.15
53900;BME280;40509;32.858;-116.858;2023-04-05T03:50:16;98479.00;;;18.17;47.08
53900;BME280;40509;32.858;-116.858;2023-04-05T03:52:45;98478.28;;;18.15;47.02
53900;BME280;40509;32.858;-116.858;2023-04-05T03:55:12;98484.69;;;18.11;46.94
53900;BME280;40509;32.858;-116.858;2023-04-05T03:57:43;98483.97;;;18.09;47.14
53900;BME280;40509;32.858;-116.858;2023-04-05T04:00:22;98485.63;;;18.10;46.95
53900;BME280;40509;32.858;-116.858;2023-04-05T04:03:07;98485.88;;;18.07;47.29
53900;BME280;40509;32.858;-116.858;2023-04-05T04:05:39;98486.56;;;18.09;47.26
53900;BME280;40509;32.858;-116.858;2023-04-05T04:08:07;98485.50;;;18.12;47.27
53900;BME280;40509;32.858;-116.858;2023-04-05T04:10:36;98488.25;;;18.10;47.09
53900;BME280;40509;32.858;-116.858;2023-04-05T04:13:10;98484.94;;;18.08;47.32
53900;BME280;40509;32.858;-116.858;2023-04-05T04:15:37;98491.09;;;18.07;47.26
53900;BME280;40509;32.858;-116.858;2023-04-05T04:18:43;98492.88;;;18.07;47.19
53900;BME280;40509;32.858;-116.858;2023-04-05T04:21:32;98497.38;;;18.05;47.24
53900;BME280;40509;32.858;-116.858;2023-04-05T04:24:21;98498.94;;;18.07;47.39
53900;BME280;40509;32.858;-116.858;2023-04-05T04:27:12;98493.34;;;18.00;47.35
53900;BME280;40509;32.858;-116.858;2023-04-05T04:29:58;98500.13;;;18.03;47.28
53900;BME280;40509;32.858;-116.858;2023-04-05T04:32:36;98494.16;;;18.01;47.40
53900;BME280;40509;32.858;-116.858;2023-04-05T04:35:31;98497.72;;;18.00;47.70
53900;BME280;40509;32.858;-116.858;2023-04-05T04:38:18;98504.50;;;18.02;47.56
53900;BME280;40509;32.858;-116.858;2023-04-05T04:41:10;98508.91;;;18.02;47.41
53900;BME280;40509;32.858;-116.858;2023-04-05T04:44:16;98498.69;;;17.99;47.38
53900;BME280;40509;32.858;-116.858;2023-04-05T04:47:01;98498.78;;;17.97;47.62
53900;BME280;40509;32.858;-116.858;2023-04-05T04:49:46;98494.16;;;18.01;47.37
53900;BME280;40509;32.858;-116.858;2023-04-05T04:52:13;98494.50;;;17.96;47.66
53900;BME280;40509;32.858;-116.858;2023-04-05T04:54:41;98499.84;;;17.95;47.58
53900;BME280;40509;32.858;-116.858;2023-04-05T04:57:09;98502.34;;;17.96;47.62
53900;BME280;40509;32.858;-116.858;2023-04-05T04:59:36;98503.41;;;17.94;47.67
53900;BME280;40509;32.858;-116.858;2023-04-05T05:02:05;98504.09;;;17.96;47.49
53900;BME280;40509;32.858;-116.858;2023-04-05T05:04:33;98500.06;;;17.92;47.79
53900;BME280;40509;32.858;-116.858;2023-04-05T05:07:01;98506.97;;;17.93;47.50
53900;BME280;40509;32.858;-116.858;2023-04-05T05:09:28;98504.66;;;17.88;47.94
53900;BME280;40509;32.858;-116.858;2023-04-05T05:11:57;98505.00;;;17.83;47.66
53900;BME280;40509;32.858;-116.858;2023-04-05T05:14:26;98498.81;;;17.84;47.90
53900;BME280;40509;32.858;-116.858;2023-04-05T05:16:54;98499.22;;;17.91;47.70
53900;BME280;40509;32.858;-116.858;2023-04-05T05:19:28;98492.44;;;17.89;47.61
53900;BME280;40509;32.858;-116.858;2023-04-05T05:21:55;98491.00;;;17.84;47.47
53900;BME280;40509;32.858;-116.858;2023-04-05T05:24:23;98498.72;;;17.86;47.50
53900;BME280;40509;32.858;-116.858;2023-04-05T05:26:50;98489.19;;;17.85;47.75
53900;BME280;40509;32.858;-116.858;2023-04-05T05:29:19;98491.50;;;17.90;47.58
53900;BME280;40509;32.858;-116.858;2023-04-05T05:31:46;98475.31;;;17.84;47.91
53900;BME280;40509;32.858;-116.858;2023-04-05T05:34:14;98477.13;;;17.84;47.68
53900;BME280;40509;32.858;-116.858;2023-04-05T05:36:49;98472.72;;;17.84;47.91
53900;BME280;40509;32.858;-116.858;2023-04-05T05:39:18;98474.38;;;17.85;47.87
53900;BME280;40509;32.858;-116.858;2023-04-05T05:41:46;98477.13;;;17.84;47.77
53900;BME280;40509;32.858;-116.858;2023-04-05T05:44:13;98474.72;;;17.81;47.77
53900;BME280;40509;32.858;-116.858;2023-04-05T05:46:41;98470.66;;;17.77;47.89
53900;BME280;40509;32.858;-116.858;2023-04-05T05:49:08;98470.47;;;17.80;47.70
53900;BME280;40509;32.858;-116.858;2023-04-05T05:51:35;98462.72;;;17.78;47.78
53900;BME280;40509;32.858;-116.858;2023-04-05T05:54:02;98471.50;;;17.77;47.59
53900;BME280;40509;32.858;-116.858;2023-04-05T05:56:30;98469.72;;;17.78;47.66
53900;BME280;40509;32.858;-116.858;2023-04-05T05:58:57;98471.41;;;17.79;47.73
53900;BME280;40509;32.858;-116.858;2023-04-05T06:01:25;98477.31;;;17.81;47.56
53900;BME280;40509;32.858;-116.858;2023-04-05T06:03:53;98473.16;;;17.78;47.81
53900;BME280;40509;32.858;-116.858;2023-04-05T06:06:21;98473.16;;;17.78;47.70
53900;BME280;40509;32.858;-116.858;2023-04-05T06:08:49;98462.94;;;17.75;47.88
53900;BME280;40509;32.858;-116.858;2023-04-05T06:11:20;98470.78;;;17.75;47.56
53900;BME280;40509;32.858;-116.858;2023-04-05T06:13:51;98465.78;;;17.72;47.85
53900;BME280;40509;32.858;-116.858;2023-04-05T06:16:21;98465.69;;;17.74;47.70
53900;BME280;40509;32.858;-116.858;2023-04-05T06:18:48;98460.56;;;17.72;47.91
53900;BME280;40509;32.858;-116.858;2023-04-05T06:21:15;98461.50;;;17.71;47.64
53900;BME280;40509;32.858;-116.858;2023-04-05T06:23:43;98452.84;;;17.70;47.54
53900;BME280;40509;32.858;-116.858;2023-04-05T06:26:21;98456.53;;;17.68;47.80
53900;BME280;40509;32.858;-116.858;2023-04-05T06:28:53;98455.66;;;17.67;47.77
53900;BME280;40509;32.858;-116.858;2023-04-05T06:31:26;98461.50;;;17.71;47.58
53900;BME280;40509;32.858;-116.858;2023-04-05T06:33:53;98457.47;;;17.67;47.70
53900;BME280;40509;32.858;-116.858;2023-04-05T06:36:20;98454.16;;;17.65;47.59
53900;BME280;40509;32.858;-116.858;2023-04-05T06:38:48;98463.63;;;17.66;47.94
53900;BME280;40509;32.858;-116.858;2023-04-05T06:41:16;98450.81;;;17.63;47.71
53900;BME280;40509;32.858;-116.858;2023-04-05T06:43:43;98465.53;;;17.64;47.66
53900;BME280;40509;32.858;-116.858;2023-04-05T06:46:10;98470.50;;;17.67;47.68
53900;BME280;40509;32.858;-116.858;2023-04-05T06:48:38;98474.06;;;17.66;47.59
53900;BME280;40509;32.858;-116.858;2023-04-05T06:51:05;98472.84;;;17.59;47.64
53900;BME280;40509;32.858;-116.858;2023-04-05T06:53:33;98470.25;;;17.59;47.45
53900;BME280;40509;32.858;-116.858;2023-04-05T06:56:00;98466.19;;;17.55;47.88
53900;BME280;40509;32.858;-116.858;2023-04-05T06:58:28;98473.69;;;17.59;47.61
53900;BME280;40509;32.858;-116.858;2023-04-05T07:00:55;98474.03;;;17.55;47.72
53900;BME280;40509;32.858;-116.858;2023-04-05T07:03:23;98472.47;;;17.52;47.74
53900;BME280;40509;32.858;-116.858;2023-04-05T07:05:51;98474.84;;;17.55;47.74
53900;BME280;40509;32.858;-116.858;2023-04-05T07:08:19;98470.47;;;17.56;47.65
53900;BME280;40509;32.858;-116.858;2023-04-05T07:10:48;98472.03;;;17.58;47.63
53900;BME280;40509;32.858;-116.858;2023-04-05T07:13:16;98468.81;;;17.55;47.38
53900;BME280;40509;32.858;-116.858;2023-04-05T07:15:44;98471.41;;;17.55;47.65
53900;BME280;40509;32.858;-116.858;2023-04-05T07:18:12;98467.88;;;17.56;47.58
53900;BME280;40509;32.858;-116.858;2023-04-05T07:20:41;98464.53;;;17.53;47.69
53900;BME280;40509;32.858;-116.858;2023-04-05T07:23:08;98465.38;;;17.54;47.67
53900;BME280;40509;32.858;-116.858;2023-04-05T07:25:35;98461.91;;;17.53;47.50
53900;BME280;40509;32.858;-116.858;2023-04-05T07:28:06;98460.25;;;17.52;47.46
53900;BME280;40509;32.858;-116.858;2023-04-05T07:30:33;98463.09;;;17.49;47.61
53900;BME280;40509;32.858;-116.858;2023-04-05T07:33:02;98459.97;;;17.44;47.44
53900;BME280;40509;32.858;-116.858;2023-04-05T07:35:29;98457.47;;;17.43;47.53
53900;BME280;40509;32.858;-116.858;2023-04-05T07:37:57;98461.53;;;17.47;47.74
53900;BME280;40509;32.858;-116.858;2023-04-05T07:40:24;98460.47;;;17.49;47.65
53900;BME280;40509;32.858;-116.858;2023-04-05T07:42:51;98457.16;;;17.47;47.77
53900;BME280;40509;32.858;-116.858;2023-04-05T07:45:19;98458.44;;;17.42;47.63
53900;BME280;40509;32.858;-116.858;2023-04-05T07:47:46;98457.59;;;17.41;47.70
53900;BME280;40509;32.858;-116.858;2023-04-05T07:50:13;98453.94;;;17.44;47.58
53900;BME280;40509;32.858;-116.858;2023-04-05T07:52:41;98456.78;;;17.41;47.60
53900;BME280;40509;32.858;-116.858;2023-04-05T07:55:09;98459.69;;;17.36;47.55
53900;BME280;40509;32.858;-116.858;2023-04-05T07:57:36;98449.75;;;17.41;47.73
53900;BME280;40509;32.858;-116.858;2023-04-05T08:00:05;98455.09;;;17.40;47.71
53900;BME280;40509;32.858;-116.858;2023-04-05T08:02:45;98450.94;;;17.37;47.58
53900;BME280;40509;32.858;-116.858;2023-04-05T08:05:12;98446.88;;;17.33;47.58
53900;BME280;40509;32.858;-116.858;2023-04-05T08:07:40;98441.31;;;17.38;47.46
53900;BME280;40509;32.858;-116.858;2023-04-05T08:10:07;98445.72;;;17.37;47.34
53900;BME280;40509;32.858;-116.858;2023-04-05T08:12:35;98447.69;;;17.33;47.60
53900;BME280;40509;32.858;-116.858;2023-04-05T08:15:02;98438.94;;;17.34;47.56
53900;BME280;40509;32.858;-116.858;2023-04-05T08:17:30;98445.09;;;17.33;47.53
53900;BME280;40509;32.858;-116.858;2023-04-05T08:19:57;98443.56;;;17.31;47.55
53900;BME280;40509;32.858;-116.858;2023-04-05T08:22:27;98444.63;;;17.28;47.54
53900;BME280;40509;32.858;-116.858;2023-04-05T08:24:54;98442.94;;;17.27;47.59
53900;BME280;40509;32.858;-116.858;2023-04-05T08:27:22;98441.50;;;17.23;47.58
53900;BME280;40509;32.858;-116.858;2023-04-05T08:29:49;98437.97;;;17.24;47.96
53900;BME280;40509;32.858;-116.858;2023-04-05T08:32:16;98435.44;;;17.23;47.78
53900;BME280;40509;32.858;-116.858;2023-04-05T08:34:44;98433.78;;;17.22;47.59
53900;BME280;40509;32.858;-116.858;2023-04-05T08:37:11;98427.53;;;17.24;47.41
53900;BME280;40509;32.858;-116.858;2023-04-05T08:39:38;98420.75;;;17.22;47.43
53900;BME280;40509;32.858;-116.858;2023-04-05T08:42:22;98422.84;;;17.16;47.68
53900;BME280;40509;32.858;-116.858;2023-04-05T08:44:53;98415.34;;;17.12;47.91
53900;BME280;40509;32.858;-116.858;2023-04-05T08:47:24;98415.44;;;17.10;47.67
53900;BME280;40509;32.858;-116.858;2023-04-05T08:49:52;98416.06;;;17.14;47.70
53900;BME280;40509;32.858;-116.858;2023-04-05T08:52:19;98409.19;;;17.13;47.63
53900;BME280;40509;32.858;-116.858;2023-04-05T08:54:46;98397.94;;;17.12;47.66
53900;BME280;40509;32.858;-116.858;2023-04-05T08:57:14;98392.81;;;17.11;47.59
53900;BME280;40509;32.858;-116.858;2023-04-05T08:59:43;98389.38;;;17.10;47.66
53900;BME280;40509;32.858;-116.858;2023-04-05T09:02:17;98385.81;;;17.11;47.65
53900;BME280;40509;32.858;-116.858;2023-04-05T09:04:46;98375.50;;;17.10;47.70
53900;BME280;40509;32.858;-116.858;2023-04-05T09:07:15;98381.66;;;17.09;47.71
53900;BME280;40509;32.858;-116.858;2023-04-05T09:09:46;98385.19;;;17.08;47.67
53900;BME280;40509;32.858;-116.858;2023-04-05T09:12:14;98379.59;;;17.01;47.52
53900;BME280;40509;32.858;-116.858;2023-04-05T09:14:42;98364.44;;;17.06;47.83
53900;BME280;40509;32.858;-116.858;2023-04-05T09:17:09;98370.63;;;17.05;47.50
53900;BME280;40509;32.858;-116.858;2023-04-05T09:19:37;98370.72;;;17.03;47.56
53900;BME280;40509;32.858;-116.858;2023-04-05T09:22:06;98373.31;;;17.03;47.51
53900;BME280;40509;32.858;-116.858;2023-04-05T09:24:42;98374.72;;;16.96;47.85
53900;BME280;40509;32.858;-116.858;2023-04-05T09:27:17;98368.47;;;16.99;47.70
53900;BME280;40509;32.858;-116.858;2023-04-05T09:29:49;98375.47;;;16.98;47.88
53900;BME280;40509;32.858;-116.858;2023-04-05T09:32:17;98367.00;;;16.95;47.62
53900;BME280;40509;32.858;-116.858;2023-04-05T09:34:46;98361.56;;;16.98;47.71
53900;BME280;40509;32.858;-116.858;2023-04-05T09:37:21;98364.41;;;16.95;47.54
53900;BME280;40509;32.858;-116.858;2023-04-05T09:39:50;98361.69;;;16.96;47.75
53900;BME280;40509;32.858;-116.858;2023-04-05T09:42:31;98357.41;;;16.95;47.64
53900;BME280;40509;32.858;-116.858;2023-04-05T09:45:09;98349.69;;;16.94;47.62
53900;BME280;40509;32.858;-116.858;2023-04-05T09:47:54;98353.47;;;16.90;47.86
53900;BME280;40509;32.858;-116.858;2023-04-05T09:50:22;98352.53;;;16.91;47.67
53900;BME280;40509;32.858;-116.858;2023-04-05T09:53:11;98348.13;;;16.91;47.65
53900;BME280;40509;32.858;-116.858;2023-04-05T09:55:47;98347.09;;;16.94;47.62
53900;BME280;40509;32.858;-116.858;2023-04-05T09:58:21;98346.38;;;16.92;47.75
53900;BME280;40509;32.858;-116.858;2023-04-05T10:00:49;98349.94;;;16.91;47.54
53900;BME280;40509;32.858;-116.858;2023-04-05T10:03:20;98346.28;;;16.93;47.60
53900;BME280;40509;32.858;-116.858;2023-04-05T10:05:56;98351.78;;;16.89;47.48
53900;BME280;40509;32.858;-116.858;2023-04-05T10:08:24;98352.00;;;16.85;47.50
53900;BME280;40509;32.858;-116.858;2023-04-05T10:10:52;98345.13;;;16.84;47.69
53900;BME280;40509;32.858;-116.858;2023-04-05T10:13:20;98343.56;;;16.82;47.82
53900;BME280;40509;32.858;-116.858;2023-04-05T10:15:49;98337.75;;;16.78;47.74
53900;BME280;40509;32.858;-116.858;2023-04-05T10:18:22;98331.09;;;16.74;47.78
53900;BME280;40509;32.858;-116.858;2023-04-05T10:20:53;98329.19;;;16.76;47.83
53900;BME280;40509;32.858;-116.858;2023-04-05T10:23:27;98331.41;;;16.69;47.59
53900;BME280;40509;32.858;-116.858;2023-04-05T10:26:07;98326.59;;;16.76;47.71
53900;BME280;40509;32.858;-116.858;2023-04-05T10:28:42;98324.91;;;16.75;47.49
53900;BME280;40509;32.858;-116.858;2023-04-05T10:31:24;98323.16;;;16.76;47.84
53900;BME280;40509;32.858;-116.858;2023-04-05T10:34:04;98326.81;;;16.73;47.59
53900;BME280;40509;32.858;-116.858;2023-04-05T10:36:59;98322.41;;;16.74;47.54
53900;BME280;40509;32.858;-116.858;2023-04-05T10:39:31;98318.25;;;16.71;47.79
53900;BME280;40509;32.858;-116.858;2023-04-05T10:44:36;98323.69;;;16.68;47.75
53900;BME280;40509;32.858;-116.858;2023-04-05T10:47:04;98315.88;;;16.68;47.68
53900;BME280;40509;32.858;-116.858;2023-04-05T10:49:37;98322.75;;;16.69;47.83
53900;BME280;40509;32.858;-116.858;2023-04-05T10:52:05;98321.31;;;16.65;47.59
53900;BME280;40509;32.858;-116.858;2023-04-05T10:54:34;98329.38;;;16.62;47.85
53900;BME280;40509;32.858;-116.858;2023-04-05T10:57:07;98329.16;;;16.65;47.70
53900;BME280;40509;32.858;-116.858;2023-04-05T10:59:40;98324.97;;;16.62;47.59
53900;BME280;40509;32.858;-116.858;2023-04-05T11:02:09;98320.59;;;16.63;47.80
53900;BME280;40509;32.858;-116.858;2023-04-05T11:04:38;98321.22;;;16.66;47.55
53900;BME280;40509;32.858;-116.858;2023-04-05T11:07:12;98320.81;;;16.60;47.65
53900;BME280;40509;32.858;-116.858;2023-04-05T11:09:50;98316.34;;;16.62;47.66
53900;BME280;40509;32.858;-116.858;2023-04-05T11:12:18;98324.03;;;16.63;47.40
53900;BME280;40509;32.858;-116.858;2023-04-05T11:14:45;98329.25;;;16.63;47.43
53900;BME280;40509;32.858;-116.858;2023-04-05T11:17:39;98324.16;;;16.62;47.42
53900;BME280;40509;32.858;-116.858;2023-04-05T11:20:10;98322.72;;;16.58;47.60
53900;BME280;40509;32.858;-116.858;2023-04-05T11:22:38;98324.06;;;16.50;47.54
53900;BME280;40509;32.858;-116.858;2023-04-05T11:25:05;98324.81;;;16.52;47.76
53900;BME280;40509;32.858;-116.858;2023-04-05T11:27:37;98319.72;;;16.51;47.70
53900;BME280;40509;32.858;-116.858;2023-04-05T11:30:07;98326.56;;;16.52;47.42
53900;BME280;40509;32.858;-116.858;2023-04-05T11:32:44;98319.72;;;16.51;47.46
53900;BME280;40509;32.858;-116.858;2023-04-05T11:35:16;98328.25;;;16.53;47.47
53900;BME280;40509;32.858;-116.858;2023-04-05T11:38:06;98321.56;;;16.49;47.65
53900;BME280;40509;32.858;-116.858;2023-04-05T11:40:36;98320.66;;;16.50;47.18
53900;BME280;40509;32.858;-116.858;2023-04-05T11:43:07;98321.81;;;16.46;47.77
53900;BME280;40509;32.858;-116.858;2023-04-05T11:45:40;98327.84;;;16.46;47.76
53900;BME280;40509;32.858;-116.858;2023-04-05T11:48:13;98331.38;;;16.45;47.62
53900;BME280;40509;32.858;-116.858;2023-04-05T11:50:41;98333.28;;;16.43;47.70
53900;BME280;40509;32.858;-116.858;2023-04-05T11:53:15;98329.84;;;16.43;47.58
53900;BME280;40509;32.858;-116.858;2023-04-05T11:55:45;98331.50;;;16.44;47.48
53900;BME280;40509;32.858;-116.858;2023-04-05T11:58:13;98325.78;;;16.39;47.36
53900;BME280;40509;32.858;-116.858;2023-04-05T12:00:42;98329.34;;;16.38;47.67
53900;BME280;40509;32.858;-116.858;2023-04-05T12:03:16;98323.28;;;16.37;47.38
53900;BME280;40509;32.858;-116.858;2023-04-05T12:05:48;98327.44;;;16.40;47.63
53900;BME280;40509;32.858;-116.858;2023-04-05T12:08:16;98331.09;;;16.37;47.56
53900;BME280;40509;32.858;-116.858;2023-04-05T12:10:55;98332.88;;;16.37;47.35
53900;BME280;40509;32.858;-116.858;2023-04-05T12:13:31;98332.88;;;16.37;47.09
53900;BME280;40509;32.858;-116.858;2023-04-05T12:15:59;98325.16;;;16.35;47.35
53900;BME280;40509;32.858;-116.858;2023-04-05T12:18:29;98325.38;;;16.32;47.58
53900;BME280;40509;32.858;-116.858;2023-04-05T12:20:57;98325.47;;;16.30;47.55
53900;BME280;40509;32.858;-116.858;2023-04-05T12:23:24;98322.03;;;16.30;47.11
53900;BME280;40509;32.858;-116.858;2023-04-05T12:25:54;98318.50;;;16.31;47.29
53900;BME280;40509;32.858;-116.858;2023-04-05T12:28:22;98320.59;;;16.26;47.51
53900;BME280;40509;32.858;-116.858;2023-04-05T12:30:54;98318.22;;;16.23;47.31
53900;BME280;40509;32.858;-116.858;2023-04-05T12:33:28;98334.78;;;16.22;47.46
53900;BME280;40509;32.858;-116.858;2023-04-05T12:35:56;98330.59;;;16.19;47.25
53900;BME280;40509;32.858;-116.858;2023-04-05T12:38:27;98328.75;;;16.21;47.53
53900;BME280;40509;32.858;-116.858;2023-04-05T12:40:59;98329.56;;;16.22;47.46
53900;BME280;40509;32.858;-116.858;2023-04-05T12:43:40;98339.16;;;16.21;47.50
53900;BME280;40509;32.858;-116.858;2023-04-05T12:46:09;98335.00;;;16.18;47.36
53900;BME280;40509;32.858;-116.858;2023-04-05T12:48:37;98343.75;;;16.17;47.36
53900;BME280;40509;32.858;-116.858;2023-04-05T12:51:13;98338.53;;;16.17;47.40
53900;BME280;40509;32.858;-116.858;2023-04-05T12:53:44;98335.09;;;16.17;47.33
53900;BME280;40509;32.858;-116.858;2023-04-05T12:56:15;98333.56;;;16.14;47.55
53900;BME280;40509;32.858;-116.858;2023-04-05T12:58:47;98329.50;;;16.10;47.34
53900;BME280;40509;32.858;-116.858;2023-04-05T13:01:18;98333.66;;;16.13;47.51